Time;durP1;ratioP1;P1;durP2;ratioP2;P2;SDS_P1;SDS_P2;PMS_P1;PMS_P2;Temp;Humidity;BMP_temperature;BMP_pressure;BME280_temperature;BME280_humidity;BME280_pressure;Samples;Min_cycle;Max_cycle;Signal;HPM_P1;HPM_P2
2023/10/08 00:01:43;;;;;;;10.75;5.10;;;15.10;61.00;;;;;;5015693;28;20034;-63
2023/10/08 00:04:18;;;;;;;10.52;4.68;;;15.10;61.10;;;;;;5013361;28;20033;-62
2023/10/08 00:06:46;;;;;;;8.73;5.13;;;15.00;61.20;;;;;;5012826;28;20033;-63
2023/10/08 00:09:12;;;;;;;11.48;4.97;;;15.10;61.20;;;;;;5020046;28;20496;-63
2023/10/08 00:11:40;;;;;;;8.63;4.57;;;15.00;61.30;;;;;;5013314;28;20083;-62
2023/10/08 00:14:10;;;;;;;11.32;5.25;;;15.00;61.40;;;;;;5012150;28;20447;-63
2023/10/08 00:16:39;;;;;;;7.82;4.63;;;15.00;61.40;;;;;;5017882;28;20053;-61
2023/10/08 00:19:11;;;;;;;12.73;5.10;;;15.00;61.40;;;;;;4995992;28;20029;-62
2023/10/08 00:21:38;;;;;;;9.77;5.00;;;15.00;61.50;;;;;;5018504;28;20025;-61
2023/10/08 00:24:06;;;;;;;12.70;5.10;;;15.00;61.50;;;;;;5014337;28;21522;-61
2023/10/08 00:26:35;;;;;;;13.00;5.45;;;14.90;61.50;;;;;;5021574;28;20029;-62
2023/10/08 00:29:21;;;;;;;10.00;4.95;;;15.00;61.70;;;;;;5020505;28;20026;-62
2023/10/08 00:31:49;;;;;;;10.93;4.82;;;14.90;61.70;;;;;;5012404;28;20440;-62
2023/10/08 00:34:21;;;;;;;7.72;4.55;;;14.90;61.60;;;;;;5021188;28;20037;-63
2023/10/08 00:36:48;;;;;;;8.75;5.32;;;14.90;61.80;;;;;;5019488;28;20080;-62
2023/10/08 00:39:16;;;;;;;11.48;5.10;;;14.90;61.80;;;;;;5016449;28;20033;-62
2023/10/08 00:41:45;;;;;;;14.85;5.40;;;14.90;62.00;;;;;;5014782;28;20446;-62
2023/10/08 00:44:13;;;;;;;12.80;5.25;;;14.90;62.00;;;;;;5020351;28;20017;-62
2023/10/08 00:46:47;;;;;;;12.43;4.95;;;14.90;62.00;;;;;;5015272;28;20025;-61
2023/10/08 00:49:24;;;;;;;15.50;5.47;;;14.90;62.00;;;;;;5013058;28;20041;-62
2023/10/08 00:54:33;;;;;;;11.10;5.13;;;14.90;62.30;;;;;;5017443;28;20045;-63
2023/10/08 00:57:04;;;;;;;9.85;5.15;;;14.90;62.00;;;;;;5022273;28;20029;-62
2023/10/08 00:59:40;;;;;;;8.98;5.15;;;14.90;62.10;;;;;;5024378;28;20037;-62
2023/10/08 01:02:08;;;;;;;12.25;5.38;;;14.90;62.20;;;;;;5004850;28;20485;-63
2023/10/08 01:04:34;;;;;;;10.65;5.63;;;14.90;62.20;;;;;;5008162;28;20025;-63
2023/10/08 01:07:12;;;;;;;7.88;5.03;;;14.90;62.30;;;;;;5014887;28;20041;-61
2023/10/08 01:09:40;;;;;;;10.43;5.15;;;15.00;62.50;;;;;;5020359;28;20048;-61
2023/10/08 01:12:10;;;;;;;9.32;5.20;;;15.00;62.40;;;;;;5024338;28;20574;-63
2023/10/08 01:14:37;;;;;;;10.65;5.18;;;14.90;62.60;;;;;;5023347;28;20033;-62
2023/10/08 01:17:05;;;;;;;11.85;5.50;;;15.00;62.50;;;;;;5021211;28;20017;-62
2023/10/08 01:19:31;;;;;;;10.45;5.10;;;15.00;62.60;;;;;;5024936;28;20041;-62
2023/10/08 01:21:59;;;;;;;10.65;5.05;;;15.00;62.60;;;;;;5022515;28;20025;-63
2023/10/08 01:24:27;;;;;;;11.88;4.97;;;15.00;62.50;;;;;;5001727;28;20557;-62
2023/10/08 01:26:52;;;;;;;8.60;4.57;;;15.00;62.60;;;;;;5021836;28;20034;-62
2023/10/08 01:29:21;;;;;;;8.95;4.85;;;15.00;62.60;;;;;;5021632;28;20037;-63
2023/10/08 01:31:48;;;;;;;11.07;4.63;;;15.00;62.50;;;;;;5021926;28;20033;-62
2023/10/08 01:34:17;;;;;;;8.73;4.30;;;15.00;62.60;;;;;;5022452;28;20045;-62
2023/10/08 01:36:44;;;;;;;8.63;4.78;;;15.00;62.70;;;;;;5016870;28;20552;-62
2023/10/08 01:39:15;;;;;;;12.48;5.68;;;15.00;62.80;;;;;;5022679;28;20061;-62
2023/10/08 01:41:43;;;;;;;9.85;4.93;;;15.00;62.80;;;;;;5026494;28;20041;-61
2023/10/08 01:44:09;;;;;;;13.70;4.95;;;15.00;62.80;;;;;;5022419;28;20017;-61
2023/10/08 01:46:36;;;;;;;11.52;5.15;;;14.90;62.90;;;;;;4925216;28;20064;-62
2023/10/08 01:49:08;;;;;;;12.85;5.38;;;14.90;62.60;;;;;;5017841;28;20148;-61
2023/10/08 01:51:38;;;;;;;9.88;4.78;;;14.90;62.70;;;;;;5023396;28;20033;-62
2023/10/08 01:54:10;;;;;;;8.82;4.88;;;14.90;62.60;;;;;;5014878;28;20042;-62
2023/10/08 01:56:44;;;;;;;10.27;5.07;;;14.90;62.80;;;;;;5023797;28;20028;-61
2023/10/08 01:59:15;;;;;;;9.32;5.25;;;14.90;63.00;;;;;;5021470;28;20128;-63
2023/10/08 02:01:42;;;;;;;7.72;4.68;;;14.90;63.00;;;;;;5022444;28;20466;-62
2023/10/08 02:04:09;;;;;;;11.82;4.97;;;14.90;62.90;;;;;;5019312;28;20113;-63
2023/10/08 02:06:35;;;;;;;12.43;5.20;;;14.90;63.00;;;;;;5022810;28;20026;-62
2023/10/08 02:09:08;;;;;;;9.35;4.97;;;14.90;63.10;;;;;;5021731;28;20057;-62
2023/10/08 02:11:50;;;;;;;11.25;4.65;;;14.90;63.30;;;;;;5022772;28;20353;-62
2023/10/08 02:14:20;;;;;;;12.45;4.97;;;14.80;63.90;;;;;;5023022;28;20377;-61
2023/10/08 02:16:46;;;;;;;12.20;4.85;;;14.80;63.40;;;;;;5004386;28;20029;-61
2023/10/08 02:19:13;;;;;;;10.65;5.22;;;14.80;63.20;;;;;;5017807;28;20448;-62
2023/10/08 02:21:40;;;;;;;9.00;5.03;;;14.80;63.30;;;;;;5017368;28;20104;-62
2023/10/08 02:24:07;;;;;;;11.15;4.82;;;14.90;63.40;;;;;;5021501;28;20033;-61
2023/10/08 02:26:36;;;;;;;7.32;4.50;;;14.80;63.40;;;;;;5022025;28;20025;-61
2023/10/08 02:29:01;;;;;;;9.95;4.72;;;14.80;64.20;;;;;;5023234;28;20034;-62
2023/10/08 02:31:27;;;;;;;9.15;4.57;;;14.80;63.50;;;;;;5018251;28;20025;-61
2023/10/08 02:33:54;;;;;;;9.00;5.20;;;14.80;63.50;;;;;;5020435;28;20080;-62
2023/10/08 02:36:19;;;;;;;6.43;4.07;;;14.80;63.60;;;;;;5019626;28;20049;-61
2023/10/08 02:38:45;;;;;;;10.07;5.13;;;14.80;63.70;;;;;;5015126;28;20492;-62
2023/10/08 02:41:16;;;;;;;15.50;4.57;;;14.80;63.70;;;;;;5005320;28;20026;-62
2023/10/08 02:43:44;;;;;;;10.10;4.63;;;14.80;64.00;;;;;;5022082;28;20029;-62
2023/10/08 02:46:14;;;;;;;9.95;4.72;;;14.80;63.70;;;;;;4910173;28;20426;-61
2023/10/08 02:48:40;;;;;;;10.88;4.25;;;14.80;63.70;;;;;;5021895;28;20057;-62
2023/10/08 02:51:15;;;;;;;8.70;4.68;;;14.80;63.60;;;;;;5019012;28;20436;-62
2023/10/08 02:53:43;;;;;;;9.73;4.38;;;14.80;63.70;;;;;;5020045;28;20392;-62
2023/10/08 02:56:13;;;;;;;11.18;4.85;;;14.80;63.70;;;;;;5019763;28;20403;-61
2023/10/08 02:58:40;;;;;;;9.45;4.57;;;14.80;63.80;;;;;;5017759;28;20029;-61
2023/10/08 03:01:07;;;;;;;12.13;5.50;;;14.80;63.70;;;;;;5017354;28;20022;-62
2023/10/08 03:03:32;;;;;;;8.35;4.22;;;14.80;63.70;;;;;;5015846;28;20038;-62
2023/10/08 03:05:58;;;;;;;9.35;4.60;;;14.80;63.80;;;;;;5016071;28;20030;-60
2023/10/08 03:08:24;;;;;;;10.52;4.95;;;14.80;63.90;;;;;;5015408;28;20045;-61
2023/10/08 03:10:55;;;;;;;8.77;4.70;;;14.80;63.90;;;;;;5022383;28;20022;-62
2023/10/08 03:13:22;;;;;;;9.45;4.15;;;14.80;64.10;;;;;;5014946;28;20033;-62
2023/10/08 03:16:07;;;;;;;9.52;4.55;;;14.80;63.90;;;;;;5018285;28;20040;-61
2023/10/08 03:18:36;;;;;;;9.27;4.20;;;14.70;63.90;;;;;;5011654;28;20022;-62
2023/10/08 03:21:48;;;;;;;10.05;4.00;;;14.80;63.90;;;;;;5017082;28;20025;-61
2023/10/08 03:24:29;;;;;;;8.10;3.95;;;14.70;64.10;;;;;;5018874;28;20037;-61
2023/10/08 03:27:20;;;;;;;11.77;4.40;;;14.70;63.80;;;;;;5018966;28;20037;-61
2023/10/08 03:29:47;;;;;;;8.52;4.22;;;14.70;63.80;;;;;;5018622;28;20083;-62
2023/10/08 03:32:16;;;;;;;6.95;4.05;;;14.70;64.00;;;;;;5018417;28;20021;-62
2023/10/08 03:34:47;;;;;;;6.72;3.88;;;14.80;64.20;;;;;;5020730;28;20120;-63
2023/10/08 03:37:21;;;;;;;6.95;3.92;;;14.80;64.50;;;;;;5020547;28;20025;-62
2023/10/08 03:39:51;;;;;;;7.45;3.97;;;14.70;64.40;;;;;;5015910;28;20030;-61
2023/10/08 03:42:24;;;;;;;6.88;3.90;;;14.70;64.30;;;;;;5019262;28;20072;-60
2023/10/08 03:44:55;;;;;;;8.02;3.85;;;14.80;64.50;;;;;;5019432;28;20190;-61
2023/10/08 03:47:26;;;;;;;7.00;3.55;;;14.70;64.20;;;;;;4919472;28;20030;-61
2023/10/08 03:49:54;;;;;;;8.35;4.15;;;14.70;64.50;;;;;;5016732;28;20045;-62
2023/10/08 03:52:25;;;;;;;8.57;4.32;;;14.70;64.40;;;;;;5018052;28;20026;-61
2023/10/08 03:57:41;;;;;;;8.52;3.78;;;14.80;64.60;;;;;;5019356;28;20048;-63
2023/10/08 04:00:18;;;;;;;7.57;3.78;;;14.70;64.40;;;;;;5016578;28;20461;-61
2023/10/08 04:02:55;;;;;;;9.63;4.50;;;14.70;64.80;;;;;;5018241;28;20036;-61
2023/10/08 04:05:31;;;;;;;8.02;4.85;;;14.70;64.60;;;;;;5001960;28;20037;-62
2023/10/08 04:13:14;;;;;;;10.18;4.22;;;14.70;65.00;;;;;;5018881;28;20142;-62
2023/10/08 04:15:40;;;;;;;7.40;3.90;;;14.70;64.80;;;;;;5018880;28;20483;-62
2023/10/08 04:18:10;;;;;;;12.13;4.47;;;14.70;64.80;;;;;;5017718;28;20021;-62
2023/10/08 04:20:39;;;;;;;10.63;4.07;;;14.70;65.00;;;;;;5014577;28;20072;-62
2023/10/08 04:23:17;;;;;;;9.13;4.30;;;14.70;64.90;;;;;;5017003;28;20025;-62
2023/10/08 04:25:43;;;;;;;14.55;4.28;;;14.70;65.00;;;;;;5014400;28;20089;-61
2023/10/08 04:28:14;;;;;;;8.10;4.07;;;14.70;65.00;;;;;;5018584;28;20030;-61
2023/10/08 04:30:41;;;;;;;15.00;4.10;;;14.70;65.00;;;;;;5019442;28;20026;-62
2023/10/08 04:33:12;;;;;;;11.10;3.95;;;14.70;65.00;;;;;;5013787;28;20033;-61
2023/10/08 04:35:55;;;;;;;7.88;4.15;;;14.70;65.00;;;;;;5019737;28;20127;-61
2023/10/08 04:38:39;;;;;;;11.07;3.85;;;14.60;64.90;;;;;;5021611;28;20029;-62
2023/10/08 04:41:09;;;;;;;10.98;3.58;;;14.60;64.90;;;;;;5017322;28;20032;-63
2023/10/08 04:43:37;;;;;;;12.68;3.30;;;14.60;64.80;;;;;;5015102;28;20026;-62
2023/10/08 04:46:21;;;;;;;12.23;3.70;;;14.50;64.90;;;;;;5020312;28;20476;-63
2023/10/08 04:48:49;;;;;;;9.40;3.47;;;14.50;64.80;;;;;;5018451;28;20157;-62
2023/10/08 04:51:17;;;;;;;10.18;3.25;;;14.50;64.80;;;;;;5022778;28;20026;-61
2023/10/08 04:53:45;;;;;;;10.82;4.05;;;14.50;64.80;;;;;;5021744;28;20105;-61
2023/10/08 04:56:18;;;;;;;8.13;3.88;;;14.40;64.80;;;;;;5020716;28;20114;-61
2023/10/08 04:58:47;;;;;;;8.93;3.70;;;14.40;65.00;;;;;;5003836;28;20017;-62
2023/10/08 05:01:17;;;;;;;10.38;3.53;;;14.40;65.10;;;;;;5015109;28;20366;-62
2023/10/08 05:07:01;;;;;;;12.65;3.75;;;14.50;65.30;;;;;;5015847;28;20029;-63
2023/10/08 05:17:21;;;;;;;9.40;4.10;;;14.40;65.30;;;;;;5016632;28;20528;-61
2023/10/08 05:27:56;;;;;;;7.80;3.33;;;14.30;65.20;;;;;;5020991;28;20091;-62
2023/10/08 05:38:22;;;;;;;10.93;3.65;;;14.20;65.50;;;;;;5020830;28;20347;-61
2023/10/08 05:46:39;;;;;;;12.77;3.70;;;14.20;65.50;;;;;;5017244;28;20018;-60
2023/10/08 05:54:47;;;;;;;9.77;4.00;;;14.20;65.70;;;;;;5021686;28;20500;-62
2023/10/08 06:13:09;;;;;;;11.35;5.57;;;14.30;65.90;;;;;;5020681;28;20430;-62
2023/10/08 06:15:48;;;;;;;11.15;5.47;;;14.30;65.90;;;;;;5017998;28;20030;-62
2023/10/08 06:18:27;;;;;;;12.57;5.82;;;14.30;65.90;;;;;;5017470;28;20021;-62
2023/10/08 06:21:09;;;;;;;11.13;5.00;;;14.30;65.90;;;;;;5021704;28;20067;-62
2023/10/08 06:23:37;;;;;;;12.35;5.47;;;14.40;65.70;;;;;;5022138;28;20029;-62
2023/10/08 06:28:35;;;;;;;11.60;5.47;;;14.40;65.50;;;;;;5018334;28;20364;-62
2023/10/08 06:31:06;;;;;;;13.57;5.47;;;14.40;65.60;;;;;;5018978;28;20025;-63
2023/10/08 06:33:33;;;;;;;11.23;5.07;;;14.40;65.70;;;;;;5016488;28;20045;-63
2023/10/08 06:36:05;;;;;;;16.42;5.43;;;14.50;65.80;;;;;;5017145;28;20385;-63
2023/10/08 06:38:34;;;;;;;11.88;5.65;;;14.50;65.80;;;;;;5020398;28;20029;-64
2023/10/08 06:41:08;;;;;;;14.52;4.88;;;14.50;65.90;;;;;;5021856;28;20111;-63
2023/10/08 06:43:36;;;;;;;11.60;4.75;;;14.60;66.10;;;;;;5015309;28;20018;-63
2023/10/08 06:46:04;;;;;;;14.88;4.93;;;14.60;66.00;;;;;;4917403;28;20041;-63
2023/10/08 06:48:29;;;;;;;10.15;5.50;;;14.70;66.00;;;;;;5024718;28;20022;-62
2023/10/08 06:51:07;;;;;;;11.70;5.38;;;14.70;65.90;;;;;;5018174;28;20508;-63
2023/10/08 06:53:33;;;;;;;9.40;4.22;;;14.80;65.80;;;;;;5016995;28;20492;-63
2023/10/08 06:56:04;;;;;;;12.00;4.93;;;14.80;65.60;;;;;;5019712;28;20037;-63
2023/10/08 06:58:33;;;;;;;8.85;4.43;;;14.90;65.50;;;;;;5023879;28;20049;-63
2023/10/08 07:01:04;;;;;;;9.57;4.22;;;15.00;65.40;;;;;;5022339;28;20025;-63
2023/10/08 07:03:31;;;;;;;11.15;4.45;;;15.00;65.10;;;;;;5019721;28;20033;-63
2023/10/08 07:06:02;;;;;;;11.10;4.68;;;15.10;64.90;;;;;;5017100;28;20064;-63
2023/10/08 07:08:33;;;;;;;11.82;4.43;;;15.20;64.40;;;;;;5020399;28;20495;-63
2023/10/08 07:11:01;;;;;;;10.57;4.35;;;15.20;64.20;;;;;;5016393;28;20025;-63
2023/10/08 07:13:29;;;;;;;10.27;4.15;;;15.30;64.20;;;;;;5022338;28;20094;-64
2023/10/08 07:15:56;;;;;;;12.85;4.28;;;15.30;63.80;;;;;;5019753;28;20463;-63
2023/10/08 07:18:24;;;;;;;10.77;4.07;;;15.50;63.60;;;;;;5023565;28;20033;-63
2023/10/08 07:20:56;;;;;;;11.18;4.72;;;15.50;63.40;;;;;;5020179;28;20072;-63
2023/10/08 07:23:25;;;;;;;14.00;4.15;;;15.60;63.50;;;;;;5019289;28;20546;-62
2023/10/08 07:26:10;;;;;;;14.40;4.40;;;15.70;63.30;;;;;;4995270;28;20030;-62
2023/10/08 07:28:40;;;;;;;9.77;4.35;;;15.80;63.80;;;;;;5018474;28;20078;-63
2023/10/08 07:31:18;;;;;;;13.43;4.68;;;15.90;63.00;;;;;;5016945;28;20021;-62
2023/10/08 07:33:46;;;;;;;13.40;4.57;;;16.00;62.70;;;;;;5015768;28;20042;-61
2023/10/08 07:36:18;;;;;;;9.70;5.13;;;16.10;62.50;;;;;;5018852;28;20057;-62
2023/10/08 07:38:46;;;;;;;18.83;5.13;;;16.20;62.20;;;;;;5017608;28;20040;-63
2023/10/08 07:41:14;;;;;;;11.10;5.00;;;16.30;62.00;;;;;;5009246;28;20037;-64
2023/10/08 07:43:44;;;;;;;12.80;6.07;;;16.30;61.90;;;;;;5007084;28;20048;-63
2023/10/08 07:46:10;;;;;;;14.13;5.32;;;16.40;61.90;;;;;;4981138;28;20168;-63
2023/10/08 07:48:44;;;;;;;11.68;4.53;;;16.50;61.80;;;;;;4991385;28;20712;-63
2023/10/08 07:51:10;;;;;;;14.00;4.55;;;16.60;61.60;;;;;;4987529;28;20112;-62
2023/10/08 07:53:41;;;;;;;18.25;4.03;;;16.70;61.50;;;;;;4991872;28;20627;-63
2023/10/08 07:56:08;;;;;;;10.55;4.60;;;16.70;61.40;;;;;;4999508;28;20042;-63
2023/10/08 07:58:37;;;;;;;10.32;4.57;;;16.80;61.20;;;;;;5009130;28;20045;-63
2023/10/08 08:01:06;;;;;;;14.35;4.32;;;16.90;61.30;;;;;;5010854;28;20029;-64
2023/10/08 08:03:36;;;;;;;13.88;4.80;;;17.00;61.20;;;;;;5012251;28;20053;-63
2023/10/08 08:06:06;;;;;;;16.00;4.63;;;17.10;60.90;;;;;;5011620;28;20022;-62
2023/10/08 08:08:33;;;;;;;13.55;4.35;;;17.20;60.80;;;;;;5009618;28;20018;-62
2023/10/08 08:11:11;;;;;;;12.75;4.05;;;17.30;60.60;;;;;;5014017;28;20025;-62
2023/10/08 08:13:44;;;;;;;13.13;4.43;;;17.40;60.50;;;;;;5020099;28;20032;-63
2023/10/08 08:16:18;;;;;;;14.85;5.03;;;17.50;60.30;;;;;;5016436;28;20029;-63
2023/10/08 08:18:48;;;;;;;16.50;4.82;;;17.50;60.30;;;;;;5022593;28;20499;-62
2023/10/08 08:21:15;;;;;;;14.73;4.57;;;17.60;60.20;;;;;;5020869;28;20045;-62
2023/10/08 08:23:47;;;;;;;16.60;5.00;;;17.70;60.10;;;;;;5022270;28;20087;-62
2023/10/08 08:26:26;;;;;;;17.38;4.53;;;17.80;59.90;;;;;;5015506;28;20038;-63
2023/10/08 08:29:01;;;;;;;17.48;5.35;;;17.90;59.60;;;;;;5023193;28;20071;-63
2023/10/08 08:31:31;;;;;;;14.85;5.10;;;17.90;59.20;;;;;;4998490;28;20596;-63
2023/10/08 08:34:09;;;;;;;13.30;5.30;;;18.00;59.30;;;;;;5015231;28;20022;-63
2023/10/08 08:36:39;;;;;;;17.63;5.38;;;18.10;59.10;;;;;;5019663;28;20439;-63
2023/10/08 08:39:08;;;;;;;12.65;4.93;;;18.20;59.00;;;;;;5002462;28;20419;-62
2023/10/08 08:41:39;;;;;;;13.88;5.05;;;18.30;58.70;;;;;;4997755;28;20041;-63
2023/10/08 08:44:06;;;;;;;12.68;4.70;;;18.40;58.50;;;;;;5016791;28;20021;-62
2023/10/08 08:46:35;;;;;;;15.07;4.35;;;18.50;58.60;;;;;;5015412;28;20033;-63
2023/10/08 08:49:04;;;;;;;9.95;4.20;;;18.60;58.50;;;;;;5020081;28;20021;-63
2023/10/08 08:51:30;;;;;;;13.32;4.82;;;18.70;58.40;;;;;;5020586;28;20029;-64
2023/10/08 08:53:59;;;;;;;12.90;4.82;;;18.80;58.50;;;;;;5020305;28;20032;-62
2023/10/08 08:56:26;;;;;;;17.50;5.38;;;18.90;58.30;;;;;;5020237;28;20569;-63
2023/10/08 08:58:56;;;;;;;9.05;3.90;;;19.00;58.50;;;;;;5012449;28;20475;-64
2023/10/08 09:01:22;;;;;;;7.75;3.45;;;19.20;58.10;;;;;;5020480;28;20056;-64
2023/10/08 09:03:50;;;;;;;11.52;4.53;;;19.40;57.90;;;;;;5016609;28;20442;-64
2023/10/08 09:06:16;;;;;;;13.32;5.82;;;19.60;57.60;;;;;;5017674;28;20485;-63
2023/10/08 09:08:45;;;;;;;21.92;13.55;;;19.70;57.50;;;;;;5020756;28;20165;-62
2023/10/08 09:11:15;;;;;;;13.75;7.45;;;19.90;57.40;;;;;;5017922;28;20472;-63
2023/10/08 09:13:41;;;;;;;16.27;6.13;;;20.00;57.10;;;;;;4993880;28;20568;-63
2023/10/08 09:16:08;;;;;;;17.00;8.73;;;20.20;57.10;;;;;;5017159;28;20373;-63
2023/10/08 09:18:34;;;;;;;14.10;5.20;;;20.30;57.00;;;;;;5011697;28;20052;-63
2023/10/08 09:21:22;;;;;;;13.45;4.40;;;20.50;57.10;;;;;;5022280;28;20048;-63
2023/10/08 09:23:54;;;;;;;10.55;4.05;;;20.70;57.00;;;;;;5022889;28;20293;-62
2023/10/08 09:26:23;;;;;;;8.15;3.70;;;20.90;55.80;;;;;;5024843;28;20044;-64
2023/10/08 09:28:51;;;;;;;14.77;3.72;;;21.10;55.10;;;;;;5021740;28;20017;-64
2023/10/08 09:31:19;;;;;;;8.65;2.92;;;21.30;55.00;;;;;;5019854;28;20034;-63
2023/10/08 09:33:55;;;;;;;9.23;3.53;;;21.50;53.70;;;;;;5020434;28;20029;-63
2023/10/08 09:36:31;;;;;;;18.88;3.80;;;21.70;50.10;;;;;;5022745;28;20530;-64
2023/10/08 09:39:06;;;;;;;9.57;3.60;;;21.90;51.40;;;;;;5017317;28;20126;-62
2023/10/08 09:41:33;;;;;;;10.23;3.35;;;22.00;49.00;;;;;;5024105;28;20053;-63
2023/10/08 09:43:59;;;;;;;11.48;3.60;;;22.20;49.90;;;;;;5020446;28;20026;-63
2023/10/08 09:46:31;;;;;;;13.23;4.10;;;22.40;50.00;;;;;;4915012;28;20130;-64
2023/10/08 09:49:01;;;;;;;10.13;3.97;;;22.60;48.50;;;;;;5023879;28;20108;-64
2023/10/08 09:51:29;;;;;;;12.48;3.75;;;22.60;47.60;;;;;;5023413;28;20487;-64
2023/10/08 09:54:13;;;;;;;11.85;3.97;;;22.70;47.70;;;;;;5020908;28;20507;-62
2023/10/08 09:56:40;;;;;;;6.57;3.20;;;22.80;46.60;;;;;;5020651;28;20025;-62
2023/10/08 09:59:08;;;;;;;10.60;3.70;;;22.90;48.00;;;;;;5023015;28;20091;-63
2023/10/08 10:01:37;;;;;;;13.85;4.20;;;22.90;47.10;;;;;;5019963;28;20415;-64
2023/10/08 10:04:10;;;;;;;12.32;3.65;;;23.10;47.30;;;;;;5019533;28;20030;-63
2023/10/08 10:06:36;;;;;;;8.70;3.80;;;23.10;46.70;;;;;;5023497;28;20033;-63
2023/10/08 10:09:01;;;;;;;8.85;3.30;;;23.20;45.30;;;;;;5025088;28;20412;-63
2023/10/08 10:11:29;;;;;;;10.95;4.55;;;23.20;46.40;;;;;;5021839;28;20034;-63
2023/10/08 10:14:00;;;;;;;8.30;3.60;;;23.20;45.60;;;;;;5023199;28;20017;-64
2023/10/08 10:16:28;;;;;;;9.95;3.78;;;23.20;44.80;;;;;;5024687;28;20091;-62
2023/10/08 10:18:59;;;;;;;8.45;4.10;;;23.30;45.50;;;;;;5021715;28;20129;-62
2023/10/08 10:21:27;;;;;;;13.32;3.80;;;23.30;45.30;;;;;;5017605;28;20029;-62
2023/10/08 10:23:54;;;;;;;12.85;4.82;;;23.40;45.00;;;;;;5022297;28;21117;-62
2023/10/08 10:26:24;;;;;;;13.13;3.60;;;23.40;44.60;;;;;;5025864;28;20022;-62
2023/10/08 10:29:10;;;;;;;12.32;3.45;;;23.50;44.60;;;;;;5026339;28;20118;-62
2023/10/08 10:31:53;;;;;;;8.05;3.65;;;23.50;44.80;;;;;;5021419;28;20029;-63
2023/10/08 10:34:26;;;;;;;9.68;3.97;;;23.60;44.50;;;;;;5020195;28;20177;-64
2023/10/08 10:36:56;;;;;;;11.07;3.33;;;23.70;43.50;;;;;;5023041;28;20022;-63
2023/10/08 10:39:26;;;;;;;11.93;3.70;;;23.80;45.10;;;;;;5020686;28;20420;-64
2023/10/08 10:42:06;;;;;;;16.45;3.67;;;23.90;45.40;;;;;;5024679;28;20435;-64
2023/10/08 10:44:33;;;;;;;12.57;3.35;;;24.00;45.00;;;;;;5019392;28;20026;-63
2023/10/08 10:52:32;;;;;;;11.48;4.57;;;24.50;43.30;;;;;;5015601;28;20040;-63
2023/10/08 10:57:56;;;;;;;;;;;24.70;41.40;;;;;;5024970;28;20029;-63
2023/10/08 11:03:02;;;;;;;;;;;24.90;42.40;;;;;;5022584;28;19916;-63
2023/10/08 11:05:37;;;;;;;;;;;25.00;42.70;;;;;;5014102;28;19916;-63
2023/10/08 11:08:06;;;;;;;;;;;25.10;44.80;;;;;;5016963;28;19913;-64
2023/10/08 11:10:33;;;;;;;;;;;25.10;45.30;;;;;;5023174;28;19917;-63
2023/10/08 11:13:01;;;;;;;;;;;25.20;45.20;;;;;;5024094;28;19917;-62
2023/10/08 11:15:40;;;;;;;;;;;25.20;45.10;;;;;;5023246;28;19921;-63
2023/10/08 11:18:12;;;;;;;;;;;25.30;45.60;;;;;;5015544;28;19986;-64
2023/10/08 11:20:39;;;;;;;;;;;25.30;44.50;;;;;;5019778;28;19970;-64
2023/10/08 11:23:28;;;;;;;;;;;25.10;45.10;;;;;;5016755;28;19917;-64
2023/10/08 11:25:53;;;;;;;;;;;25.30;43.30;;;;;;5020246;28;19913;-64
2023/10/08 11:28:19;;;;;;;;;;;25.30;45.40;;;;;;5018370;28;19948;-64
2023/10/08 11:30:46;;;;;;;;;;;25.30;46.00;;;;;;5017649;28;20264;-63
2023/10/08 11:33:15;;;;;;;;;;;25.30;45.20;;;;;;5017345;28;19928;-63
2023/10/08 11:36:18;;;;;;;;;;;25.30;45.10;;;;;;5018045;28;19928;-64
2023/10/08 11:38:48;;;;;;;;;;;25.20;45.40;;;;;;4944067;28;19910;-63
2023/10/08 11:41:20;;;;;;;;;;;25.20;45.20;;;;;;4941498;29;19910;-63
2023/10/08 11:43:48;;;;;;;;;;;25.20;45.90;;;;;;4941600;28;19910;-63
2023/10/08 11:46:17;;;;;;;;;;;25.20;45.70;;;;;;4849821;28;19956;-64
2023/10/08 11:48:46;;;;;;;;;;;25.30;44.40;;;;;;4947654;28;19928;-64
2023/10/08 11:51:13;;;;;;;;;;;25.30;45.40;;;;;;4947494;28;19910;-63
2023/10/08 11:53:38;;;;;;;;;;;25.40;46.20;;;;;;4941420;28;19914;-64
2023/10/08 11:56:12;;;;;;;;;;;25.50;45.20;;;;;;4943065;29;19961;-63
2023/10/08 11:58:44;;;;;;;;;;;25.60;45.80;;;;;;4947721;28;19914;-64
2023/10/08 12:01:18;;;;;;;;;;;25.60;43.20;;;;;;4942014;28;19918;-64
2023/10/08 12:03:49;;;;;;;;;;;25.70;44.80;;;;;;4941118;29;19914;-64
2023/10/08 12:06:18;;;;;;;;;;;25.80;46.20;;;;;;4940977;28;19965;-63
2023/10/08 12:08:47;;;;;;;;;;;25.80;44.40;;;;;;4939416;29;19960;-63
2023/10/08 12:11:13;;;;;;;;;;;25.80;44.40;;;;;;4932724;28;19918;-63
2023/10/08 12:13:43;;;;;;;;;;;25.80;44.60;;;;;;5003779;28;20000;-64
2023/10/08 12:16:18;;;;;;;;;;;25.80;43.60;;;;;;5016233;28;20333;-64
2023/10/08 12:18:48;;;;;;;;;;;25.80;44.10;;;;;;5021875;28;19952;-64
2023/10/08 12:21:15;;;;;;;;;;;25.70;44.50;;;;;;5014255;28;19913;-64
2023/10/08 12:23:43;;;;;;;;;;;25.60;44.30;;;;;;5005352;28;19909;-64
2023/10/08 12:26:09;;;;;;;;;;;25.60;44.90;;;;;;5013316;28;19920;-64
2023/10/08 12:28:36;;;;;;;;;;;25.60;44.80;;;;;;5010299;28;19913;-64
2023/10/08 12:31:04;;;;;;;;;;;25.70;45.30;;;;;;5018193;28;20374;-64
2023/10/08 12:33:31;;;;;;;;;;;25.80;45.00;;;;;;5023768;28;20328;-63
2023/10/08 12:35:57;;;;;;;;;;;25.90;40.30;;;;;;5023177;28;20283;-63
2023/10/08 12:38:22;;;;;;;;;;;26.00;44.50;;;;;;5021218;28;19924;-63
2023/10/08 12:40:52;;;;;;;;;;;26.00;44.40;;;;;;5000464;28;20352;-63
2023/10/08 12:43:21;;;;;;;;;;;26.00;42.90;;;;;;5022970;28;20340;-63
2023/10/08 12:45:52;;;;;;;;;;;26.00;43.80;;;;;;4946575;28;20383;-62
2023/10/08 12:48:21;;;;;;;;;;;26.00;41.20;;;;;;5024761;28;20110;-64
2023/10/08 12:50:52;;;;;;;;;;;26.00;42.20;;;;;;5019452;28;19935;-63
2023/10/08 12:53:26;;;;;;;;;;;26.00;44.10;;;;;;5018037;28;20248;-64
2023/10/08 12:55:57;;;;;;;;;;;26.00;43.70;;;;;;5011018;28;19995;-63
2023/10/08 12:58:25;;;;;;;;;;;26.10;43.90;;;;;;5014887;28;20056;-63
2023/10/08 13:00:57;;;;;;;;;;;26.10;44.50;;;;;;5009974;28;20004;-64
2023/10/08 13:03:30;;;;;;;;;;;26.10;43.80;;;;;;5019348;28;20363;-65
2023/10/08 13:06:03;;;;;;;;;;;26.20;44.20;;;;;;5024484;28;19917;-64
2023/10/08 13:08:31;;;;;;;;;;;26.20;44.30;;;;;;5017706;28;19944;-64
2023/10/08 13:11:00;;;;;;;;;;;26.20;44.20;;;;;;5022138;28;20256;-63
2023/10/08 13:13:26;;;;;;;;;;;26.20;44.40;;;;;;5011657;28;19983;-64
2023/10/08 13:15:55;;;;;;;;;;;26.30;41.40;;;;;;5019742;28;20003;-64
2023/10/08 13:18:21;;;;;;;;;;;26.30;41.50;;;;;;5019516;28;19912;-69
2023/10/08 13:20:48;;;;;;;;;;;26.40;43.90;;;;;;5024459;28;19967;-64
2023/10/08 13:23:13;;;;;;;;;;;26.40;44.30;;;;;;5024264;28;20034;-64
2023/10/08 13:25:39;;;;;;;;;;;26.50;44.40;;;;;;5024868;28;19909;-63
2023/10/08 13:28:07;;;;;;;;;;;26.50;42.80;;;;;;5021283;28;20356;-63
2023/10/08 13:30:32;;;;;;;;;;;26.60;42.50;;;;;;5021146;28;19912;-63
2023/10/08 13:32:59;;;;;;;;;;;26.60;43.20;;;;;;5023101;28;19955;-64
2023/10/08 13:35:25;;;;;;;;;;;26.60;43.70;;;;;;5018204;28;20322;-63
2023/10/08 13:37:52;;;;;;;;;;;26.70;41.50;;;;;;5022896;28;19963;-63
2023/10/08 13:40:17;;;;;;;;;;;26.70;43.30;;;;;;5023264;28;19923;-64
2023/10/08 13:42:43;;;;;;;;;;;26.80;43.40;;;;;;5018439;28;20008;-64
2023/10/08 13:45:09;;;;;;;;;;;27.00;44.00;;;;;;5021360;28;19913;-63
2023/10/08 13:47:35;;;;;;;;;;;27.10;44.50;;;;;;4907455;28;19909;-64
2023/10/08 13:50:03;;;;;;;;;;;27.30;44.00;;;;;;5023499;28;19920;-64
2023/10/08 13:52:29;;;;;;;;;;;27.50;44.00;;;;;;5022524;28;19908;-64
2023/10/08 13:54:55;;;;;;;;;;;27.60;44.40;;;;;;5018840;28;19921;-64
2023/10/08 13:57:20;;;;;;;;;;;27.80;43.20;;;;;;5019282;28;19913;-63
2023/10/08 13:59:50;;;;;;;;;;;28.00;43.60;;;;;;5024367;28;19913;-63
2023/10/08 14:02:16;;;;;;;;;;;28.10;44.10;;;;;;5022945;28;20103;-63
2023/10/08 14:04:43;;;;;;;;;;;28.20;43.00;;;;;;5020646;28;19996;-63
2023/10/08 14:07:11;;;;;;;;;;;28.30;41.70;;;;;;5016473;28;19928;-64
2023/10/08 14:09:37;;;;;;;;;;;28.30;43.00;;;;;;5012695;28;19936;-64
2023/10/08 14:12:04;;;;;;;;;;;28.30;42.60;;;;;;5023578;28;20376;-65
2023/10/08 14:14:29;;;;;;;;;;;28.20;42.00;;;;;;5017205;28;20371;-64
2023/10/08 14:16:59;;;;;;;;;;;28.20;41.20;;;;;;5018675;28;19916;-64
2023/10/08 14:19:35;;;;;;;;;;;28.10;42.30;;;;;;5022063;28;19909;-64
2023/10/08 14:22:08;;;;;;;;;;;28.10;42.20;;;;;;5020957;28;19909;-64
2023/10/08 14:24:37;;;;;;;;;;;28.10;42.00;;;;;;5021947;28;19913;-64
2023/10/08 14:27:09;;;;;;;;;;;28.10;42.80;;;;;;5024371;28;19920;-64
2023/10/08 14:29:40;;;;;;;;;;;28.20;42.50;;;;;;5021528;28;20355;-64
2023/10/08 14:32:08;;;;;;;;;;;28.20;42.40;;;;;;5020063;28;19916;-64
2023/10/08 14:42:56;;;;;;;;;;;28.30;41.30;;;;;;5022475;28;20426;-64
2023/10/08 14:45:26;;;;;;;;;;;28.30;41.60;;;;;;4985197;28;19982;-62
2023/10/08 14:47:55;;;;;;;;;;;28.50;42.10;;;;;;5014724;28;20137;-63